sensor_id;sensor_type;location;lat;lon;timestamp;P1;durP1;ratioP1;P2;durP2;ratioP2
52934;SDS011;38802;50.198;19.796;2023-04-29T00:01:16;19.10;;;12.00;;
52934;SDS011;38802;50.198;19.796;2023-04-29T00:03:44;15.30;;;12.10;;
52934;SDS011;38802;50.198;19.796;2023-04-29T00:06:13;16.70;;;10.80;;
52934;SDS011;38802;50.198;19.796;2023-04-29T00:08:41;13.00;;;11.10;;
52934;SDS011;38802;50.198;19.796;2023-04-29T00:11:09;14.80;;;9.70;;
52934;SDS011;38802;50.198;19.796;2023-04-29T00:13:40;14.20;;;10.60;;
52934;SDS011;38802;50.198;19.796;2023-04-29T00:16:09;16.10;;;11.00;;
52934;SDS011;38802;50.198;19.796;2023-04-29T00:18:37;15.20;;;10.00;;
52934;SDS011;38802;50.198;19.796;2023-04-29T00:21:05;17.30;;;11.60;;
52934;SDS011;38802;50.198;19.796;2023-04-29T00:23:33;15.90;;;10.30;;
52934;SDS011;38802;50.198;19.796;2023-04-29T00:26:02;15.80;;;10.40;;
52934;SDS011;38802;50.198;19.796;2023-04-29T00:28:30;14.90;;;10.20;;
52934;SDS011;38802;50.198;19.796;2023-04-29T00:30:58;13.10;;;9.90;;
52934;SDS011;38802;50.198;19.796;2023-04-29T00:33:26;13.90;;;10.70;;
52934;SDS011;38802;50.198;19.796;2023-04-29T00:35:54;13.20;;;10.50;;
52934;SDS011;38802;50.198;19.796;2023-04-29T00:38:22;12.30;;;10.30;;
52934;SDS011;38802;50.198;19.796;2023-04-29T00:40:50;11.10;;;9.70;;
52934;SDS011;38802;50.198;19.796;2023-04-29T00:43:18;15.20;;;11.10;;
52934;SDS011;38802;50.198;19.796;2023-04-29T00:45:47;14.70;;;10.80;;
52934;SDS011;38802;50.198;19.796;2023-04-29T00:48:15;16.90;;;11.10;;
52934;SDS011;38802;50.198;19.796;2023-04-29T00:50:44;22.90;;;12.00;;
52934;SDS011;38802;50.198;19.796;2023-04-29T00:53:11;17.10;;;10.70;;
52934;SDS011;38802;50.198;19.796;2023-04-29T00:55:40;16.80;;;10.10;;
52934;SDS011;38802;50.198;19.796;2023-04-29T00:58:10;14.10;;;11.30;;
52934;SDS011;38802;50.198;19.796;2023-04-29T01:00:38;15.40;;;10.80;;
52934;SDS011;38802;50.198;19.796;2023-04-29T01:03:08;17.30;;;10.30;;
52934;SDS011;38802;50.198;19.796;2023-04-29T01:05:37;13.70;;;10.40;;
52934;SDS011;38802;50.198;19.796;2023-04-29T01:11:21;18.40;;;10.90;;
52934;SDS011;38802;50.198;19.796;2023-04-29T01:13:53;14.00;;;9.90;;
52934;SDS011;38802;50.198;19.796;2023-04-29T01:16:29;11.70;;;10.10;;
52934;SDS011;38802;50.198;19.796;2023-04-29T01:19:15;15.10;;;10.80;;
52934;SDS011;38802;50.198;19.796;2023-04-29T01:22:07;16.40;;;10.70;;
52934;SDS011;38802;50.198;19.796;2023-04-29T01:24:35;14.20;;;10.40;;
52934;SDS011;38802;50.198;19.796;2023-04-29T01:27:10;16.20;;;10.90;;
52934;SDS011;38802;50.198;19.796;2023-04-29T01:29:55;14.50;;;10.30;;
52934;SDS011;38802;50.198;19.796;2023-04-29T01:35:39;16.90;;;9.60;;
52934;SDS011;38802;50.198;19.796;2023-04-29T01:43:36;12.30;;;9.40;;
52934;SDS011;38802;50.198;19.796;2023-04-29T01:46:15;16.90;;;9.20;;
52934;SDS011;38802;50.198;19.796;2023-04-29T01:48:46;12.80;;;9.10;;
52934;SDS011;38802;50.198;19.796;2023-04-29T01:51:15;12.60;;;9.40;;
52934;SDS011;38802;50.198;19.796;2023-04-29T01:53:43;12.20;;;9.80;;
52934;SDS011;38802;50.198;19.796;2023-04-29T01:56:11;14.00;;;8.90;;
52934;SDS011;38802;50.198;19.796;2023-04-29T01:58:57;16.10;;;8.90;;
52934;SDS011;38802;50.198;19.796;2023-04-29T02:01:44;12.60;;;9.10;;
52934;SDS011;38802;50.198;19.796;2023-04-29T02:04:12;13.60;;;10.40;;
52934;SDS011;38802;50.198;19.796;2023-04-29T02:06:41;17.40;;;10.10;;
52934;SDS011;38802;50.198;19.796;2023-04-29T02:09:09;14.40;;;9.40;;
52934;SDS011;38802;50.198;19.796;2023-04-29T02:11:39;11.80;;;9.50;;
52934;SDS011;38802;50.198;19.796;2023-04-29T02:14:06;15.40;;;9.50;;
52934;SDS011;38802;50.198;19.796;2023-04-29T02:16:34;13.80;;;9.00;;
52934;SDS011;38802;50.198;19.796;2023-04-29T02:19:04;15.90;;;9.60;;
52934;SDS011;38802;50.198;19.796;2023-04-29T02:21:32;15.70;;;8.90;;
52934;SDS011;38802;50.198;19.796;2023-04-29T02:24:02;14.10;;;8.40;;
52934;SDS011;38802;50.198;19.796;2023-04-29T02:26:30;12.10;;;8.90;;
52934;SDS011;38802;50.198;19.796;2023-04-29T02:28:59;8.90;;;8.10;;
52934;SDS011;38802;50.198;19.796;2023-04-29T02:31:27;13.20;;;8.20;;
52934;SDS011;38802;50.198;19.796;2023-04-29T02:33:56;16.40;;;8.60;;
52934;SDS011;38802;50.198;19.796;2023-04-29T02:36:24;20.40;;;9.00;;
52934;SDS011;38802;50.198;19.796;2023-04-29T02:38:53;11.60;;;8.40;;
52934;SDS011;38802;50.198;19.796;2023-04-29T02:41:22;11.20;;;8.20;;
52934;SDS011;38802;50.198;19.796;2023-04-29T02:43:52;9.70;;;7.90;;
52934;SDS011;38802;50.198;19.796;2023-04-29T02:46:20;13.10;;;8.80;;
52934;SDS011;38802;50.198;19.796;2023-04-29T02:48:48;11.80;;;8.60;;
52934;SDS011;38802;50.198;19.796;2023-04-29T02:51:16;15.60;;;10.60;;
52934;SDS011;38802;50.198;19.796;2023-04-29T02:53:44;16.10;;;10.50;;
52934;SDS011;38802;50.198;19.796;2023-04-29T02:56:12;17.00;;;11.50;;
52934;SDS011;38802;50.198;19.796;2023-04-29T02:58:40;18.60;;;11.70;;
52934;SDS011;38802;50.198;19.796;2023-04-29T03:01:08;21.30;;;12.30;;
52934;SDS011;38802;50.198;19.796;2023-04-29T03:03:37;23.20;;;12.20;;
52934;SDS011;38802;50.198;19.796;2023-04-29T03:06:05;17.80;;;11.50;;
52934;SDS011;38802;50.198;19.796;2023-04-29T03:08:33;16.70;;;10.80;;
52934;SDS011;38802;50.198;19.796;2023-04-29T03:11:02;17.60;;;11.30;;
52934;SDS011;38802;50.198;19.796;2023-04-29T03:13:30;18.60;;;11.10;;
52934;SDS011;38802;50.198;19.796;2023-04-29T03:15:58;27.30;;;12.00;;
52934;SDS011;38802;50.198;19.796;2023-04-29T03:18:27;17.20;;;10.80;;
52934;SDS011;38802;50.198;19.796;2023-04-29T03:20:55;16.60;;;11.30;;
52934;SDS011;38802;50.198;19.796;2023-04-29T03:23:23;14.80;;;10.00;;
52934;SDS011;38802;50.198;19.796;2023-04-29T03:25:51;15.20;;;10.10;;
52934;SDS011;38802;50.198;19.796;2023-04-29T03:28:19;15.00;;;10.20;;
52934;SDS011;38802;50.198;19.796;2023-04-29T03:30:48;9.80;;;8.20;;
52934;SDS011;38802;50.198;19.796;2023-04-29T03:33:16;15.20;;;8.60;;
52934;SDS011;38802;50.198;19.796;2023-04-29T03:35:45;11.30;;;8.60;;
52934;SDS011;38802;50.198;19.796;2023-04-29T03:38:35;12.40;;;8.00;;
52934;SDS011;38802;50.198;19.796;2023-04-29T03:41:04;15.10;;;8.10;;
52934;SDS011;38802;50.198;19.796;2023-04-29T03:43:32;11.90;;;8.10;;
52934;SDS011;38802;50.198;19.796;2023-04-29T03:46:00;12.10;;;8.40;;
52934;SDS011;38802;50.198;19.796;2023-04-29T03:48:28;12.40;;;8.20;;
52934;SDS011;38802;50.198;19.796;2023-04-29T03:50:56;10.00;;;7.50;;
52934;SDS011;38802;50.198;19.796;2023-04-29T03:53:26;15.70;;;7.90;;
52934;SDS011;38802;50.198;19.796;2023-04-29T03:55:54;10.40;;;8.10;;
52934;SDS011;38802;50.198;19.796;2023-04-29T03:58:22;15.70;;;9.90;;
52934;SDS011;38802;50.198;19.796;2023-04-29T04:13:56;22.30;;;13.80;;
52934;SDS011;38802;50.198;19.796;2023-04-29T04:16:23;20.70;;;13.30;;
52934;SDS011;38802;50.198;19.796;2023-04-29T04:18:51;21.60;;;13.40;;
52934;SDS011;38802;50.198;19.796;2023-04-29T04:21:17;20.90;;;13.80;;
52934;SDS011;38802;50.198;19.796;2023-04-29T04:23:50;22.30;;;13.50;;
52934;SDS011;38802;50.198;19.796;2023-04-29T04:26:20;22.40;;;14.10;;
52934;SDS011;38802;50.198;19.796;2023-04-29T04:28:52;23.40;;;13.10;;
52934;SDS011;38802;50.198;19.796;2023-04-29T04:31:25;23.50;;;13.60;;
52934;SDS011;38802;50.198;19.796;2023-04-29T04:33:53;21.40;;;14.00;;
52934;SDS011;38802;50.198;19.796;2023-04-29T04:36:19;20.00;;;14.60;;
52934;SDS011;38802;50.198;19.796;2023-04-29T04:38:46;22.00;;;12.90;;
52934;SDS011;38802;50.198;19.796;2023-04-29T04:41:14;22.20;;;12.80;;
52934;SDS011;38802;50.198;19.796;2023-04-29T04:43:43;18.30;;;12.60;;
52934;SDS011;38802;50.198;19.796;2023-04-29T04:46:22;18.30;;;12.50;;
52934;SDS011;38802;50.198;19.796;2023-04-29T04:49:03;21.60;;;13.50;;
52934;SDS011;38802;50.198;19.796;2023-04-29T04:51:32;17.30;;;11.50;;
52934;SDS011;38802;50.198;19.796;2023-04-29T04:53:59;17.10;;;11.50;;
52934;SDS011;38802;50.198;19.796;2023-04-29T04:56:28;16.50;;;11.00;;
52934;SDS011;38802;50.198;19.796;2023-04-29T04:58:54;13.30;;;10.40;;
52934;SDS011;38802;50.198;19.796;2023-04-29T05:01:21;14.10;;;11.20;;
52934;SDS011;38802;50.198;19.796;2023-04-29T05:03:50;15.80;;;10.50;;
52934;SDS011;38802;50.198;19.796;2023-04-29T05:06:17;13.40;;;10.80;;
52934;SDS011;38802;50.198;19.796;2023-04-29T05:08:50;13.40;;;11.50;;
52934;SDS011;38802;50.198;19.796;2023-04-29T05:11:17;18.90;;;11.40;;
52934;SDS011;38802;50.198;19.796;2023-04-29T05:14:17;15.60;;;10.70;;
52934;SDS011;38802;50.198;19.796;2023-04-29T05:16:45;16.30;;;10.60;;
52934;SDS011;38802;50.198;19.796;2023-04-29T05:19:13;18.70;;;11.00;;
52934;SDS011;38802;50.198;19.796;2023-04-29T05:21:40;12.90;;;9.50;;
52934;SDS011;38802;50.198;19.796;2023-04-29T05:24:09;10.30;;;8.70;;
52934;SDS011;38802;50.198;19.796;2023-04-29T05:26:35;11.40;;;9.20;;
52934;SDS011;38802;50.198;19.796;2023-04-29T05:29:04;11.80;;;8.90;;
52934;SDS011;38802;50.198;19.796;2023-04-29T05:31:36;11.00;;;9.50;;
52934;SDS011;38802;50.198;19.796;2023-04-29T05:34:04;17.90;;;9.10;;
52934;SDS011;38802;50.198;19.796;2023-04-29T05:36:31;11.70;;;9.30;;
52934;SDS011;38802;50.198;19.796;2023-04-29T05:38:57;11.40;;;8.60;;
52934;SDS011;38802;50.198;19.796;2023-04-29T05:41:24;13.10;;;8.40;;
52934;SDS011;38802;50.198;19.796;2023-04-29T05:44:06;11.20;;;8.40;;
52934;SDS011;38802;50.198;19.796;2023-04-29T05:46:33;11.10;;;8.70;;
52934;SDS011;38802;50.198;19.796;2023-04-29T05:49:00;12.00;;;8.30;;
52934;SDS011;38802;50.198;19.796;2023-04-29T05:51:26;13.80;;;8.40;;
52934;SDS011;38802;50.198;19.796;2023-04-29T05:53:53;9.60;;;7.90;;
52934;SDS011;38802;50.198;19.796;2023-04-29T05:56:21;11.50;;;8.30;;
52934;SDS011;38802;50.198;19.796;2023-04-29T05:58:48;10.50;;;7.70;;
52934;SDS011;38802;50.198;19.796;2023-04-29T06:01:15;13.00;;;8.50;;
52934;SDS011;38802;50.198;19.796;2023-04-29T06:03:44;9.20;;;8.30;;
52934;SDS011;38802;50.198;19.796;2023-04-29T06:06:38;14.10;;;6.90;;
52934;SDS011;38802;50.198;19.796;2023-04-29T06:09:14;9.70;;;7.60;;
52934;SDS011;38802;50.198;19.796;2023-04-29T06:11:53;9.30;;;6.90;;
52934;SDS011;38802;50.198;19.796;2023-04-29T06:14:21;9.40;;;6.90;;
52934;SDS011;38802;50.198;19.796;2023-04-29T06:16:48;8.30;;;7.10;;
52934;SDS011;38802;50.198;19.796;2023-04-29T06:19:14;7.50;;;6.60;;
52934;SDS011;38802;50.198;19.796;2023-04-29T06:21:41;12.80;;;7.60;;
52934;SDS011;38802;50.198;19.796;2023-04-29T06:24:08;8.60;;;6.90;;
52934;SDS011;38802;50.198;19.796;2023-04-29T06:26:34;7.70;;;6.90;;
52934;SDS011;38802;50.198;19.796;2023-04-29T06:29:02;6.90;;;6.20;;
52934;SDS011;38802;50.198;19.796;2023-04-29T06:31:28;8.70;;;7.20;;
52934;SDS011;38802;50.198;19.796;2023-04-29T06:33:59;6.50;;;5.90;;
52934;SDS011;38802;50.198;19.796;2023-04-29T06:36:26;7.00;;;6.30;;
52934;SDS011;38802;50.198;19.796;2023-04-29T06:39:02;8.90;;;6.10;;
52934;SDS011;38802;50.198;19.796;2023-04-29T06:41:29;7.10;;;6.00;;
52934;SDS011;38802;50.198;19.796;2023-04-29T06:44:25;8.60;;;6.20;;
52934;SDS011;38802;50.198;19.796;2023-04-29T06:47:02;6.60;;;6.00;;
52934;SDS011;38802;50.198;19.796;2023-04-29T06:49:47;9.80;;;7.80;;
52934;SDS011;38802;50.198;19.796;2023-04-29T06:52:14;8.30;;;5.50;;
52934;SDS011;38802;50.198;19.796;2023-04-29T06:54:42;8.80;;;6.30;;
52934;SDS011;38802;50.198;19.796;2023-04-29T06:57:09;6.60;;;5.60;;
52934;SDS011;38802;50.198;19.796;2023-04-29T06:59:36;6.90;;;5.50;;
52934;SDS011;38802;50.198;19.796;2023-04-29T07:02:03;8.90;;;5.90;;
52934;SDS011;38802;50.198;19.796;2023-04-29T07:04:29;6.20;;;5.30;;
52934;SDS011;38802;50.198;19.796;2023-04-29T07:06:56;6.90;;;6.10;;
52934;SDS011;38802;50.198;19.796;2023-04-29T07:09:24;5.70;;;5.30;;
52934;SDS011;38802;50.198;19.796;2023-04-29T07:11:53;7.00;;;5.30;;
52934;SDS011;38802;50.198;19.796;2023-04-29T07:14:20;6.90;;;6.20;;
52934;SDS011;38802;50.198;19.796;2023-04-29T07:16:52;6.40;;;5.80;;
52934;SDS011;38802;50.198;19.796;2023-04-29T07:19:20;6.50;;;5.30;;
52934;SDS011;38802;50.198;19.796;2023-04-29T07:21:47;6.10;;;5.60;;
52934;SDS011;38802;50.198;19.796;2023-04-29T07:24:14;6.50;;;6.00;;
52934;SDS011;38802;50.198;19.796;2023-04-29T07:26:41;5.90;;;5.40;;
52934;SDS011;38802;50.198;19.796;2023-04-29T07:29:10;6.00;;;5.40;;
52934;SDS011;38802;50.198;19.796;2023-04-29T07:31:36;6.20;;;5.20;;
52934;SDS011;38802;50.198;19.796;2023-04-29T07:34:04;8.50;;;6.10;;
52934;SDS011;38802;50.198;19.796;2023-04-29T07:36:31;5.70;;;5.20;;
52934;SDS011;38802;50.198;19.796;2023-04-29T07:38:58;11.20;;;5.80;;
52934;SDS011;38802;50.198;19.796;2023-04-29T07:41:25;6.90;;;6.30;;
52934;SDS011;38802;50.198;19.796;2023-04-29T07:43:53;7.00;;;6.30;;
52934;SDS011;38802;50.198;19.796;2023-04-29T07:46:21;6.90;;;6.30;;
52934;SDS011;38802;50.198;19.796;2023-04-29T07:48:47;7.50;;;6.10;;
52934;SDS011;38802;50.198;19.796;2023-04-29T07:51:15;6.90;;;6.20;;
52934;SDS011;38802;50.198;19.796;2023-04-29T07:53:42;7.20;;;6.50;;
52934;SDS011;38802;50.198;19.796;2023-04-29T07:56:08;10.10;;;6.40;;
52934;SDS011;38802;50.198;19.796;2023-04-29T07:58:35;6.80;;;6.20;;
52934;SDS011;38802;50.198;19.796;2023-04-29T08:01:08;8.30;;;6.70;;
52934;SDS011;38802;50.198;19.796;2023-04-29T08:03:37;9.60;;;7.50;;
52934;SDS011;38802;50.198;19.796;2023-04-29T08:06:08;9.50;;;7.10;;
52934;SDS011;38802;50.198;19.796;2023-04-29T08:08:35;8.20;;;6.80;;
52934;SDS011;38802;50.198;19.796;2023-04-29T08:11:02;10.70;;;7.70;;
52934;SDS011;38802;50.198;19.796;2023-04-29T08:13:29;7.10;;;6.40;;
52934;SDS011;38802;50.198;19.796;2023-04-29T08:15:55;8.20;;;7.40;;
52934;SDS011;38802;50.198;19.796;2023-04-29T08:18:22;8.30;;;6.00;;
52934;SDS011;38802;50.198;19.796;2023-04-29T08:20:49;7.50;;;6.20;;
52934;SDS011;38802;50.198;19.796;2023-04-29T08:23:16;7.50;;;6.40;;
52934;SDS011;38802;50.198;19.796;2023-04-29T08:25:43;7.30;;;6.50;;
52934;SDS011;38802;50.198;19.796;2023-04-29T08:28:10;11.40;;;6.90;;
52934;SDS011;38802;50.198;19.796;2023-04-29T08:30:37;12.50;;;7.00;;
52934;SDS011;38802;50.198;19.796;2023-04-29T08:33:06;9.10;;;6.90;;
52934;SDS011;38802;50.198;19.796;2023-04-29T08:35:34;7.00;;;6.10;;
52934;SDS011;38802;50.198;19.796;2023-04-29T08:38:04;6.80;;;6.20;;
52934;SDS011;38802;50.198;19.796;2023-04-29T08:40:34;8.50;;;5.90;;
52934;SDS011;38802;50.198;19.796;2023-04-29T08:43:02;8.00;;;6.70;;
52934;SDS011;38802;50.198;19.796;2023-04-29T08:45:30;7.30;;;6.30;;
52934;SDS011;38802;50.198;19.796;2023-04-29T08:47:59;7.10;;;6.00;;
52934;SDS011;38802;50.198;19.796;2023-04-29T08:50:27;6.00;;;5.30;;
52934;SDS011;38802;50.198;19.796;2023-04-29T08:52:55;9.70;;;5.50;;
52934;SDS011;38802;50.198;19.796;2023-04-29T08:55:22;6.30;;;5.00;;
52934;SDS011;38802;50.198;19.796;2023-04-29T08:57:49;4.90;;;4.40;;
52934;SDS011;38802;50.198;19.796;2023-04-29T09:00:20;6.10;;;4.60;;
52934;SDS011;38802;50.198;19.796;2023-04-29T09:02:49;6.20;;;4.60;;
52934;SDS011;38802;50.198;19.796;2023-04-29T09:05:17;7.40;;;5.50;;
52934;SDS011;38802;50.198;19.796;2023-04-29T09:07:44;6.30;;;5.70;;
52934;SDS011;38802;50.198;19.796;2023-04-29T09:10:11;6.80;;;5.50;;
52934;SDS011;38802;50.198;19.796;2023-04-29T09:12:40;6.50;;;4.90;;
52934;SDS011;38802;50.198;19.796;2023-04-29T09:15:07;13.10;;;5.40;;
52934;SDS011;38802;50.198;19.796;2023-04-29T09:22:52;6.50;;;4.90;;
52934;SDS011;38802;50.198;19.796;2023-04-29T09:25:20;4.80;;;4.10;;
52934;SDS011;38802;50.198;19.796;2023-04-29T09:27:47;6.30;;;5.30;;
52934;SDS011;38802;50.198;19.796;2023-04-29T09:30:13;5.00;;;4.50;;
52934;SDS011;38802;50.198;19.796;2023-04-29T09:32:42;10.60;;;5.00;;
52934;SDS011;38802;50.198;19.796;2023-04-29T09:35:23;8.40;;;5.40;;
52934;SDS011;38802;50.198;19.796;2023-04-29T09:37:52;9.60;;;5.30;;
52934;SDS011;38802;50.198;19.796;2023-04-29T09:40:32;8.70;;;5.30;;
52934;SDS011;38802;50.198;19.796;2023-04-29T09:43:13;6.90;;;4.60;;
52934;SDS011;38802;50.198;19.796;2023-04-29T09:45:42;5.70;;;5.00;;
52934;SDS011;38802;50.198;19.796;2023-04-29T09:48:13;6.40;;;4.50;;
52934;SDS011;38802;50.198;19.796;2023-04-29T09:50:42;7.40;;;5.60;;
52934;SDS011;38802;50.198;19.796;2023-04-29T09:53:10;5.90;;;5.40;;
52934;SDS011;38802;50.198;19.796;2023-04-29T10:01:07;6.10;;;4.70;;
52934;SDS011;38802;50.198;19.796;2023-04-29T10:03:35;6.10;;;4.50;;
52934;SDS011;38802;50.198;19.796;2023-04-29T10:06:05;7.00;;;5.10;;
52934;SDS011;38802;50.198;19.796;2023-04-29T10:08:33;11.30;;;4.60;;
52934;SDS011;38802;50.198;19.796;2023-04-29T10:11:01;6.50;;;4.40;;
52934;SDS011;38802;50.198;19.796;2023-04-29T10:13:28;6.70;;;4.20;;
52934;SDS011;38802;50.198;19.796;2023-04-29T10:16:00;7.60;;;5.30;;
52934;SDS011;38802;50.198;19.796;2023-04-29T10:18:34;7.80;;;5.00;;
52934;SDS011;38802;50.198;19.796;2023-04-29T10:21:05;9.10;;;4.90;;
52934;SDS011;38802;50.198;19.796;2023-04-29T10:23:35;5.60;;;4.00;;
52934;SDS011;38802;50.198;19.796;2023-04-29T10:26:02;4.70;;;4.30;;
52934;SDS011;38802;50.198;19.796;2023-04-29T10:28:31;4.90;;;4.40;;
52934;SDS011;38802;50.198;19.796;2023-04-29T10:31:00;8.30;;;4.40;;
52934;SDS011;38802;50.198;19.796;2023-04-29T10:33:30;6.10;;;4.70;;
52934;SDS011;38802;50.198;19.796;2023-04-29T10:35:58;6.70;;;4.90;;
52934;SDS011;38802;50.198;19.796;2023-04-29T10:38:32;6.70;;;4.00;;
52934;SDS011;38802;50.198;19.796;2023-04-29T10:41:03;6.50;;;4.60;;
52934;SDS011;38802;50.198;19.796;2023-04-29T10:43:35;7.50;;;4.70;;
52934;SDS011;38802;50.198;19.796;2023-04-29T10:49:01;6.70;;;5.20;;
52934;SDS011;38802;50.198;19.796;2023-04-29T10:51:30;4.30;;;3.90;;
52934;SDS011;38802;50.198;19.796;2023-04-29T10:54:00;4.70;;;4.30;;
52934;SDS011;38802;50.198;19.796;2023-04-29T10:56:41;7.80;;;4.70;;
52934;SDS011;38802;50.198;19.796;2023-04-29T10:59:09;6.30;;;4.40;;
52934;SDS011;38802;50.198;19.796;2023-04-29T11:01:50;6.90;;;4.80;;
52934;SDS011;38802;50.198;19.796;2023-04-29T11:04:19;9.60;;;5.10;;
52934;SDS011;38802;50.198;19.796;2023-04-29T11:06:50;7.30;;;4.30;;
52934;SDS011;38802;50.198;19.796;2023-04-29T11:09:25;7.50;;;5.70;;
52934;SDS011;38802;50.198;19.796;2023-04-29T11:12:02;8.30;;;4.60;;
52934;SDS011;38802;50.198;19.796;2023-04-29T11:17:03;5.50;;;4.20;;
52934;SDS011;38802;50.198;19.796;2023-04-29T11:19:33;7.60;;;4.90;;
52934;SDS011;38802;50.198;19.796;2023-04-29T11:22:09;6.00;;;5.30;;
52934;SDS011;38802;50.198;19.796;2023-04-29T11:27:22;5.50;;;4.50;;
52934;SDS011;38802;50.198;19.796;2023-04-29T11:29:51;5.40;;;4.40;;
52934;SDS011;38802;50.198;19.796;2023-04-29T11:32:26;5.00;;;4.40;;
52934;SDS011;38802;50.198;19.796;2023-04-29T11:35:05;6.00;;;4.20;;
52934;SDS011;38802;50.198;19.796;2023-04-29T11:37:42;5.20;;;4.20;;
52934;SDS011;38802;50.198;19.796;2023-04-29T11:40:10;4.90;;;3.50;;
52934;SDS011;38802;50.198;19.796;2023-04-29T11:42:48;4.30;;;3.30;;
52934;SDS011;38802;50.198;19.796;2023-04-29T11:45:16;8.70;;;3.50;;
52934;SDS011;38802;50.198;19.796;2023-04-29T11:47:44;6.80;;;3.50;;
52934;SDS011;38802;50.198;19.796;2023-04-29T11:50:13;4.20;;;3.40;;
52934;SDS011;38802;50.198;19.796;2023-04-29T11:52:45;17.50;;;10.60;;
52934;SDS011;38802;50.198;19.796;2023-04-29T11:55:13;5.20;;;3.70;;
52934;SDS011;38802;50.198;19.796;2023-04-29T11:57:40;5.50;;;3.80;;
52934;SDS011;38802;50.198;19.796;2023-04-29T12:00:10;5.50;;;4.40;;
52934;SDS011;38802;50.198;19.796;2023-04-29T12:02:38;5.50;;;4.30;;
52934;SDS011;38802;50.198;19.796;2023-04-29T12:05:06;5.70;;;4.30;;
52934;SDS011;38802;50.198;19.796;2023-04-29T12:07:40;7.80;;;4.60;;
52934;SDS011;38802;50.198;19.796;2023-04-29T12:10:14;4.70;;;4.00;;
52934;SDS011;38802;50.198;19.796;2023-04-29T12:12:41;5.90;;;4.20;;
52934;SDS011;38802;50.198;19.796;2023-04-29T12:15:09;5.10;;;4.40;;
52934;SDS011;38802;50.198;19.796;2023-04-29T12:17:37;6.90;;;4.90;;
52934;SDS011;38802;50.198;19.796;2023-04-29T12:20:05;7.90;;;5.20;;
52934;SDS011;38802;50.198;19.796;2023-04-29T12:22:34;5.20;;;4.60;;
52934;SDS011;38802;50.198;19.796;2023-04-29T12:25:02;5.90;;;5.10;;
52934;SDS011;38802;50.198;19.796;2023-04-29T12:27:29;7.70;;;5.30;;
52934;SDS011;38802;50.198;19.796;2023-04-29T12:29:57;5.50;;;5.00;;
52934;SDS011;38802;50.198;19.796;2023-04-29T12:32:24;6.10;;;5.50;;
52934;SDS011;38802;50.198;19.796;2023-04-29T12:34:51;12.50;;;6.00;;
52934;SDS011;38802;50.198;19.796;2023-04-29T12:37:20;6.80;;;4.90;;
52934;SDS011;38802;50.198;19.796;2023-04-29T12:39:49;7.00;;;5.00;;
52934;SDS011;38802;50.198;19.796;2023-04-29T12:42:16;6.30;;;5.10;;
52934;SDS011;38802;50.198;19.796;2023-04-29T12:44:46;5.20;;;4.70;;
52934;SDS011;38802;50.198;19.796;2023-04-29T12:47:13;8.30;;;5.60;;
52934;SDS011;38802;50.198;19.796;2023-04-29T12:49:43;5.30;;;4.50;;
52934;SDS011;38802;50.198;19.796;2023-04-29T12:52:11;6.80;;;5.30;;
52934;SDS011;38802;50.198;19.796;2023-04-29T12:54:38;5.50;;;5.00;;
52934;SDS011;38802;50.198;19.796;2023-04-29T12:57:09;5.50;;;5.00;;
52934;SDS011;38802;50.198;19.796;2023-04-29T12:59:38;6.10;;;5.50;;
52934;SDS011;38802;50.198;19.796;2023-04-29T13:02:06;9.70;;;6.60;;
52934;SDS011;38802;50.198;19.796;2023-04-29T13:04:33;8.20;;;5.30;;
52934;SDS011;38802;50.198;19.796;2023-04-29T13:06:59;8.00;;;6.60;;
52934;SDS011;38802;50.198;19.796;2023-04-29T13:09:27;7.10;;;4.80;;
52934;SDS011;38802;50.198;19.796;2023-04-29T13:11:55;7.60;;;5.50;;
52934;SDS011;38802;50.198;19.796;2023-04-29T13:14:22;6.90;;;6.20;;
52934;SDS011;38802;50.198;19.796;2023-04-29T13:16:49;7.00;;;5.10;;
52934;SDS011;38802;50.198;19.796;2023-04-29T13:19:16;5.40;;;4.90;;
52934;SDS011;38802;50.198;19.796;2023-04-29T13:22:02;11.50;;;6.00;;
52934;SDS011;38802;50.198;19.796;2023-04-29T13:24:29;11.80;;;8.80;;
52934;SDS011;38802;50.198;19.796;2023-04-29T13:26:56;9.30;;;6.60;;
52934;SDS011;38802;50.198;19.796;2023-04-29T13:29:23;9.30;;;6.90;;
52934;SDS011;38802;50.198;19.796;2023-04-29T13:31:50;8.20;;;5.80;;
52934;SDS011;38802;50.198;19.796;2023-04-29T13:34:16;7.80;;;6.80;;
52934;SDS011;38802;50.198;19.796;2023-04-29T13:36:43;6.40;;;5.80;;
52934;SDS011;38802;50.198;19.796;2023-04-29T13:39:10;6.30;;;5.20;;
52934;SDS011;38802;50.198;19.796;2023-04-29T13:41:37;12.70;;;7.20;;
52934;SDS011;38802;50.198;19.796;2023-04-29T13:44:10;6.90;;;5.70;;
52934;SDS011;38802;50.198;19.796;2023-04-29T13:46:56;9.00;;;5.80;;
52934;SDS011;38802;50.198;19.796;2023-04-29T13:49:23;7.70;;;6.30;;
52934;SDS011;38802;50.198;19.796;2023-04-29T13:52:10;7.50;;;6.30;;
52934;SDS011;38802;50.198;19.796;2023-04-29T13:54:40;7.70;;;6.20;;
52934;SDS011;38802;50.198;19.796;2023-04-29T13:57:10;10.80;;;6.60;;
52934;SDS011;38802;50.198;19.796;2023-04-29T13:59:39;7.20;;;5.30;;
52934;SDS011;38802;50.198;19.796;2023-04-29T14:02:16;6.80;;;5.60;;
52934;SDS011;38802;50.198;19.796;2023-04-29T14:04:52;7.70;;;6.70;;
52934;SDS011;38802;50.198;19.796;2023-04-29T14:07:20;7.20;;;6.60;;
52934;SDS011;38802;50.198;19.796;2023-04-29T14:09:47;7.40;;;6.70;;
52934;SDS011;38802;50.198;19.796;2023-04-29T14:12:14;7.00;;;6.00;;
52934;SDS011;38802;50.198;19.796;2023-04-29T14:14:41;7.40;;;5.90;;
52934;SDS011;38802;50.198;19.796;2023-04-29T14:17:08;7.60;;;6.60;;
52934;SDS011;38802;50.198;19.796;2023-04-29T14:19:34;7.90;;;6.70;;
52934;SDS011;38802;50.198;19.796;2023-04-29T14:22:01;7.50;;;6.50;;
52934;SDS011;38802;50.198;19.796;2023-04-29T14:24:28;7.60;;;6.70;;
52934;SDS011;38802;50.198;19.796;2023-04-29T14:26:54;7.90;;;6.60;;
52934;SDS011;38802;50.198;19.796;2023-04-29T14:29:21;9.20;;;7.20;;
52934;SDS011;38802;50.198;19.796;2023-04-29T14:31:48;9.50;;;6.70;;
52934;SDS011;38802;50.198;19.796;2023-04-29T14:34:14;8.20;;;6.40;;
52934;SDS011;38802;50.198;19.796;2023-04-29T14:36:41;6.90;;;6.20;;
52934;SDS011;38802;50.198;19.796;2023-04-29T14:39:09;6.50;;;5.90;;
52934;SDS011;38802;50.198;19.796;2023-04-29T14:41:36;8.10;;;6.40;;
52934;SDS011;38802;50.198;19.796;2023-04-29T14:44:02;7.90;;;6.50;;
52934;SDS011;38802;50.198;19.796;2023-04-29T14:46:32;9.50;;;8.50;;
52934;SDS011;38802;50.198;19.796;2023-04-29T14:48:58;13.20;;;10.00;;
52934;SDS011;38802;50.198;19.796;2023-04-29T14:51:25;11.30;;;8.30;;
52934;SDS011;38802;50.198;19.796;2023-04-29T14:53:52;10.30;;;7.40;;
52934;SDS011;38802;50.198;19.796;2023-04-29T14:56:19;10.20;;;8.00;;
52934;SDS011;38802;50.198;19.796;2023-04-29T14:58:45;12.30;;;8.50;;
52934;SDS011;38802;50.198;19.796;2023-04-29T15:01:12;8.30;;;7.50;;
52934;SDS011;38802;50.198;19.796;2023-04-29T15:03:39;10.00;;;7.50;;
52934;SDS011;38802;50.198;19.796;2023-04-29T15:06:11;9.60;;;8.10;;
52934;SDS011;38802;50.198;19.796;2023-04-29T15:08:38;9.70;;;8.40;;
52934;SDS011;38802;50.198;19.796;2023-04-29T15:11:05;9.70;;;7.80;;
52934;SDS011;38802;50.198;19.796;2023-04-29T15:13:31;14.10;;;8.20;;
52934;SDS011;38802;50.198;19.796;2023-04-29T15:15:58;10.00;;;8.80;;
52934;SDS011;38802;50.198;19.796;2023-04-29T15:18:25;17.00;;;8.60;;
52934;SDS011;38802;50.198;19.796;2023-04-29T15:20:51;10.90;;;8.60;;
52934;SDS011;38802;50.198;19.796;2023-04-29T15:23:18;10.30;;;8.40;;